Portageville, NY (14536)

8:58 AM EDT on September 02, 2015 (GMT -0400)
Southview Farms | | Change Station
CLOSE
Current Station
Personal Weather Station
Location: Castile, NY
Elevation: 1417 ft
Nearby Weather Stations

Elev 1417 ft 42.64 °N, 78.01 °W | Updated 3 minutes ago

Partly Cloudy
Partly Cloudy
65.6 °F
Feels Like 65.6 °F
N
1.0
Wind Variable Wind from West

Today
High -- | Low -- °F
--% Chance of Precip.
Yesterday
High -- | Low -- °F
Precip. -- in
6:38 AM 7:45 PM
Waning Gibbous, 80% visible
Pressure 30.10 in
Visibility 7.0 miles
Clouds Few 3600 ft
Dew Point 64 °F
Humidity 93%
Rainfall 0.00 in
Snow Depth Not available.
UV 2 out of 12
Pollen 10.50 out of 12
Air Quality Not available.
Flu Activity Not available.
METAR KDSV 021254Z AUTO 13007KT 7SM FEW036 19/17 A3008 RMK AO2 SLP192 T01940172 $
Pressure 30.10 in
Visibility 7.0 miles
Clouds Few 3600 ft
Dew Point 64 °F
Humidity 93%
Rainfall 0.00 in
Snow Depth Not available.
UV 2 out of 12
Pollen 10.50 out of 12
Air Quality Not available.
Flu Activity Not available.
METAR KDSV 021254Z AUTO 13007KT 7SM FEW036 19/17 A3008 RMK AO2 SLP192 T01940172 $

10-Day Weather Forecast

×

Almanac

Astronomy

Sep. 02, 2015 Rise Set
Actual Time
Civil Twilight
Nautical Twilight
Astronomical Twilight
Moon
Length of Visible Light
Length of Day
Tomorrow will be .
, % of the Moon is Illuminated

Today's Extremes

State Highs State Lows

Community

WunderPhotos

Upload Photos

1,851,738 photos uploaded!

WunderBlogs® & News

Nearby

Air Quality

  Air Quality AQ Index Pollutant
Not available.

Snow Depth

Station Depth Elevation

Earthquake Activity

City Distance Mag. Time & Date
Minimum magnitude displayed is 2.5.

Coastal Water Temperatures

Place Temperature

Stations

Nearby Weather Stations

Station Location Temp. Windchill Dew Point Humidity Wind Precip. Elev Updated Type